Stockton-on-Tees, United Kingdom
Current Conditions -  °F | °C
As of 2:20 PM on Friday 24 Oct 2014 (Local Time) from EGNV Reporting Station
Few Clouds Few Clouds  
Wind Chill: 15°   Ceiling: Unl
Heat Index: 15°   Visibility: 6mi
Dew Point:   Wind: 13mph
Humidity: 51%   Direction: 220°SW
Pressure: 29.8"   Gusts: NA
Location:  54.57°N, 1.31°W
Report Text: EGNV 241320Z 22011KT 9999 FEW030 15/05 Q1009
Loading
Personal Weather Stations






























Interactive Weather Map
Tropical Storm Tracking
New forecast layout! Learn more

10-Day Weather Forecast

Advertisements
Track Severe Weather on mobile